Time;durP1;ratioP1;P1;durP2;ratioP2;P2;SDS_P1;SDS_P2;PMS_P1;PMS_P2;Temp;Humidity;BMP_temperature;BMP_pressure;BME280_temperature;BME280_humidity;BME280_pressure;Samples;Min_cycle;Max_cycle;Signal;HPM_P1;HPM_P2
2022/04/04 00:00:55;;;;;;;7.80;3.20;;;;;;;;;;5051304;28;20044;-60
2022/04/04 00:03:21;;;;;;;8.50;4.28;;;;;;;;;;5051277;28;20084;-60
2022/04/04 00:05:48;;;;;;;12.13;3.63;;;;;;;;;;5047751;28;20457;-60
2022/04/04 00:08:14;;;;;;;9.85;4.10;;;;;;;;;;5034668;28;20045;-61
2022/04/04 00:10:40;;;;;;;8.82;3.88;;;;;;;;;;5034799;28;20048;-61
2022/04/04 00:13:06;;;;;;;8.52;3.50;;;;;;;;;;5052984;28;20119;-61
2022/04/04 00:15:33;;;;;;;11.68;4.60;;;;;;;;;;5069190;28;20106;-61
2022/04/04 00:18:05;;;;;;;10.30;3.70;;;;;;;;;;5052802;28;20056;-61
2022/04/04 00:20:32;;;;;;;7.80;3.55;;;;;;;;;;5053469;28;20041;-61
2022/04/04 00:22:58;;;;;;;9.52;4.18;;;;;;;;;;5053110;28;20037;-60
2022/04/04 00:25:24;;;;;;;6.18;3.67;;;;;;;;;;5052682;28;20408;-61
2022/04/04 00:27:50;;;;;;;7.50;4.55;;;;;;;;;;5049863;28;20719;-60
2022/04/04 00:30:17;;;;;;;9.60;4.88;;;;;;;;;;5053545;28;20388;-61
2022/04/04 00:32:43;;;;;;;7.05;4.50;;;;;;;;;;5066837;28;20070;-61
2022/04/04 00:35:10;;;;;;;11.38;5.53;;;;;;;;;;5064949;28;20137;-61
2022/04/04 00:37:37;;;;;;;10.52;5.20;;;;;;;;;;5052780;28;20483;-61
2022/04/04 00:40:05;;;;;;;9.73;5.05;;;;;;;;;;5052090;28;20048;-61
2022/04/04 00:42:31;;;;;;;10.38;5.88;;;;;;;;;;5052601;28;20076;-60
2022/04/04 00:44:58;;;;;;;13.60;5.93;;;;;;;;;;5053397;28;20045;-61
2022/04/04 00:47:24;;;;;;;16.35;6.95;;;;;;;;;;5052288;28;20353;-61
2022/04/04 00:49:50;;;;;;;15.38;6.10;;;;;;;;;;5053065;28;20036;-61
2022/04/04 00:52:16;;;;;;;16.85;7.10;;;;;;;;;;5052246;28;20041;-61
2022/04/04 00:54:43;;;;;;;15.20;6.97;;;;;;;;;;5052952;28;20044;-61
2022/04/04 00:57:09;;;;;;;11.40;7.13;;;;;;;;;;5053006;28;20036;-61
2022/04/04 00:59:36;;;;;;;15.77;8.02;;;;;;;;;;5051725;28;20442;-60
2022/04/04 01:02:02;;;;;;;14.20;8.45;;;;;;;;;;5052647;28;20040;-61
2022/04/04 01:04:28;;;;;;;19.63;9.65;;;;;;;;;;5051869;28;20044;-61
2022/04/04 01:06:55;;;;;;;17.10;9.85;;;;;;;;;;5051656;28;20048;-61
2022/04/04 01:09:21;;;;;;;16.70;9.27;;;;;;;;;;5050493;28;20522;-61
2022/04/04 01:12:07;;;;;;;15.50;10.13;;;;;;;;;;5049047;28;20477;-61
2022/04/04 01:14:34;;;;;;;25.52;11.43;;;;;;;;;;5049323;28;20094;-61
2022/04/04 01:17:01;;;;;;;19.52;10.23;;;;;;;;;;5049827;28;20091;-61
2022/04/04 01:19:27;;;;;;;23.25;10.82;;;;;;;;;;5051822;28;20145;-61
2022/04/04 01:21:53;;;;;;;16.85;10.52;;;;;;;;;;5051457;28;20369;-61
2022/04/04 01:24:20;;;;;;;17.35;10.48;;;;;;;;;;5051564;28;20506;-60
2022/04/04 01:26:47;;;;;;;17.88;10.40;;;;;;;;;;5052411;28;20075;-61
2022/04/04 01:29:13;;;;;;;20.88;10.63;;;;;;;;;;5050868;28;20083;-61
2022/04/04 01:31:39;;;;;;;20.70;11.00;;;;;;;;;;5035983;28;20071;-61
2022/04/04 01:34:06;;;;;;;23.27;10.88;;;;;;;;;;5051900;28;20052;-61
2022/04/04 01:36:32;;;;;;;19.73;12.57;;;;;;;;;;5050349;28;20056;-60
2022/04/04 01:38:58;;;;;;;15.27;11.32;;;;;;;;;;5051670;28;20044;-61
2022/04/04 01:41:25;;;;;;;19.45;11.95;;;;;;;;;;5033024;28;20124;-61
2022/04/04 01:43:51;;;;;;;24.42;12.88;;;;;;;;;;5050866;28;20685;-60
2022/04/04 01:46:25;;;;;;;21.35;12.07;;;;;;;;;;5051422;28;20045;-61
2022/04/04 01:48:52;;;;;;;19.00;12.63;;;;;;;;;;5050639;28;20083;-60
2022/04/04 01:51:18;;;;;;;22.27;14.40;;;;;;;;;;5033603;28;20072;-60
2022/04/04 01:53:45;;;;;;;25.35;13.48;;;;;;;;;;5051286;28;20492;-61
2022/04/04 01:56:11;;;;;;;24.27;13.60;;;;;;;;;;5032156;28;20049;-61
2022/04/04 01:58:37;;;;;;;19.15;12.73;;;;;;;;;;5051061;28;20044;-61
2022/04/04 02:01:09;;;;;;;21.52;13.10;;;;;;;;;;5050024;28;20048;-61
2022/04/04 02:03:36;;;;;;;23.60;13.20;;;;;;;;;;5069365;28;20041;-61
2022/04/04 02:06:02;;;;;;;20.55;13.32;;;;;;;;;;5050815;28;20120;-61
2022/04/04 02:08:28;;;;;;;22.27;12.95;;;;;;;;;;5033319;28;20049;-61
2022/04/04 02:10:55;;;;;;;28.15;12.23;;;;;;;;;;5050044;28;20495;-61
2022/04/04 02:13:25;;;;;;;25.63;13.02;;;;;;;;;;5051293;28;20095;-61
2022/04/04 02:15:52;;;;;;;21.88;13.10;;;;;;;;;;5049528;28;20037;-61
2022/04/04 02:18:18;;;;;;;18.77;12.38;;;;;;;;;;5048213;28;20036;-61
2022/04/04 02:20:44;;;;;;;23.77;12.75;;;;;;;;;;5048642;28;20041;-61
2022/04/04 02:23:10;;;;;;;23.25;13.35;;;;;;;;;;5049575;28;20127;-61
2022/04/04 02:25:37;;;;;;;24.38;12.90;;;;;;;;;;5047557;28;20051;-61
2022/04/04 02:28:03;;;;;;;19.25;13.18;;;;;;;;;;5050009;28;20099;-61
2022/04/04 02:30:30;;;;;;;21.73;13.50;;;;;;;;;;5050868;28;20045;-61
2022/04/04 02:32:56;;;;;;;23.38;14.20;;;;;;;;;;5050094;28;20051;-61
2022/04/04 02:35:23;;;;;;;20.30;14.05;;;;;;;;;;5050609;28;20057;-61
2022/04/04 02:37:49;;;;;;;22.13;14.57;;;;;;;;;;5050417;28;20059;-61
2022/04/04 02:40:15;;;;;;;20.63;14.75;;;;;;;;;;5032457;28;20041;-61
2022/04/04 02:42:41;;;;;;;25.55;14.85;;;;;;;;;;5051316;28;20043;-61
2022/04/04 02:45:08;;;;;;;30.80;16.20;;;;;;;;;;5050279;28;20052;-61
2022/04/04 02:47:34;;;;;;;21.77;14.57;;;;;;;;;;5016257;28;20140;-61
2022/04/04 02:50:00;;;;;;;24.40;15.30;;;;;;;;;;5030611;28;20495;-61
2022/04/04 02:52:26;;;;;;;25.52;16.33;;;;;;;;;;5067645;28;20060;-61
2022/04/04 02:54:52;;;;;;;21.23;14.52;;;;;;;;;;5032688;28;20045;-61
2022/04/04 02:57:19;;;;;;;23.83;15.57;;;;;;;;;;5050492;28;20130;-60
2022/04/04 02:59:45;;;;;;;25.08;16.10;;;;;;;;;;5050218;28;20041;-61
2022/04/04 03:02:12;;;;;;;27.33;17.40;;;;;;;;;;5050578;28;20079;-61
2022/04/04 03:04:40;;;;;;;27.05;17.05;;;;;;;;;;5050815;28;20076;-61
2022/04/04 03:07:08;;;;;;;28.00;16.60;;;;;;;;;;5049689;28;20045;-61
2022/04/04 03:09:34;;;;;;;27.08;16.13;;;;;;;;;;5032677;28;20507;-61
2022/04/04 03:12:01;;;;;;;27.60;18.48;;;;;;;;;;5050528;28;20049;-61
2022/04/04 03:14:28;;;;;;;25.00;16.20;;;;;;;;;;5032734;28;20041;-60
2022/04/04 03:16:55;;;;;;;25.63;17.30;;;;;;;;;;5054660;28;20117;-61
2022/04/04 03:19:22;;;;;;;28.02;17.88;;;;;;;;;;5054420;28;20064;-61
2022/04/04 03:21:48;;;;;;;31.88;17.42;;;;;;;;;;5069216;28;20051;-61
2022/04/04 03:24:14;;;;;;;25.02;15.30;;;;;;;;;;5036243;28;20053;-61
2022/04/04 03:26:40;;;;;;;25.58;16.05;;;;;;;;;;5054213;28;20099;-61
2022/04/04 03:29:06;;;;;;;26.30;15.68;;;;;;;;;;5050679;28;20124;-61
2022/04/04 03:31:33;;;;;;;30.70;16.33;;;;;;;;;;5051921;28;20482;-61
2022/04/04 03:33:59;;;;;;;27.13;17.00;;;;;;;;;;5053779;28;20049;-61
2022/04/04 03:36:25;;;;;;;29.58;16.65;;;;;;;;;;5068725;28;20075;-60
2022/04/04 03:38:51;;;;;;;28.92;15.18;;;;;;;;;;5053827;28;20598;-60
2022/04/04 03:41:17;;;;;;;26.83;12.40;;;;;;;;;;5035503;28;20032;-61
2022/04/04 03:43:44;;;;;;;19.92;10.38;;;;;;;;;;5053649;28;20041;-61
2022/04/04 03:46:10;;;;;;;24.15;9.55;;;;;;;;;;5036271;28;20098;-61
2022/04/04 03:48:36;;;;;;;30.10;12.90;;;;;;;;;;5053045;28;20099;-61
2022/04/04 03:51:02;;;;;;;18.88;10.35;;;;;;;;;;5035781;28;20123;-61
2022/04/04 03:53:28;;;;;;;21.20;9.88;;;;;;;;;;5035880;28;20052;-60
2022/04/04 03:55:54;;;;;;;23.55;9.80;;;;;;;;;;5052799;28;20036;-60
2022/04/04 03:58:21;;;;;;;19.73;10.52;;;;;;;;;;5035662;28;20465;-61
2022/04/04 04:00:47;;;;;;;18.85;10.80;;;;;;;;;;5053134;28;20032;-60
2022/04/04 04:03:13;;;;;;;25.63;11.60;;;;;;;;;;5052877;28;20472;-61
2022/04/04 04:05:39;;;;;;;23.65;12.23;;;;;;;;;;5053740;28;20105;-60
2022/04/04 04:08:06;;;;;;;22.75;12.68;;;;;;;;;;5068845;28;20044;-61
2022/04/04 04:10:33;;;;;;;22.73;11.88;;;;;;;;;;5052447;28;20049;-60
2022/04/04 04:13:01;;;;;;;19.60;12.75;;;;;;;;;;5053543;28;20037;-60
2022/04/04 04:15:27;;;;;;;20.10;12.55;;;;;;;;;;5053362;28;20072;-61
2022/04/04 04:17:54;;;;;;;21.63;12.98;;;;;;;;;;5053019;28;20389;-60
2022/04/04 04:20:20;;;;;;;31.20;13.73;;;;;;;;;;5052982;28;20509;-60
2022/04/04 04:22:48;;;;;;;21.05;11.77;;;;;;;;;;5053699;28;20127;-61
2022/04/04 04:25:15;;;;;;;27.67;15.05;;;;;;;;;;5052535;28;20696;-61
2022/04/04 04:27:42;;;;;;;23.40;13.75;;;;;;;;;;5053327;28;20037;-60
2022/04/04 04:30:09;;;;;;;27.85;13.50;;;;;;;;;;5065477;28;20461;-60
2022/04/04 04:32:35;;;;;;;29.45;13.73;;;;;;;;;;5049517;28;20072;-61
2022/04/04 04:35:01;;;;;;;33.17;15.20;;;;;;;;;;5048951;28;20404;-61
2022/04/04 04:37:28;;;;;;;25.40;13.82;;;;;;;;;;5049062;28;20136;-61
2022/04/04 04:39:55;;;;;;;25.58;13.15;;;;;;;;;;5052741;28;20123;-61
2022/04/04 04:42:21;;;;;;;24.63;13.25;;;;;;;;;;5052793;28;20049;-61
2022/04/04 04:44:47;;;;;;;27.90;12.68;;;;;;;;;;5049604;28;20048;-60
2022/04/04 04:47:15;;;;;;;31.08;13.20;;;;;;;;;;5052943;28;20037;-60
2022/04/04 04:49:42;;;;;;;29.13;12.73;;;;;;;;;;5050155;28;20094;-60
2022/04/04 04:52:08;;;;;;;33.92;13.25;;;;;;;;;;5051540;28;21594;-60
2022/04/04 04:54:34;;;;;;;23.92;13.73;;;;;;;;;;5052796;28;20111;-60
2022/04/04 04:57:01;;;;;;;22.55;13.45;;;;;;;;;;5052639;28;20088;-60
2022/04/04 04:59:27;;;;;;;26.23;13.13;;;;;;;;;;5052278;28;20110;-61
2022/04/04 05:01:53;;;;;;;23.95;14.00;;;;;;;;;;5052279;28;20116;-60
2022/04/04 05:04:19;;;;;;;22.80;12.13;;;;;;;;;;5052069;28;20048;-60
2022/04/04 05:06:49;;;;;;;20.63;10.45;;;;;;;;;;5048639;28;20049;-60
2022/04/04 05:09:16;;;;;;;18.02;7.80;;;;;;;;;;5052778;28;20083;-60
2022/04/04 05:11:42;;;;;;;12.60;6.82;;;;;;;;;;5052632;28;20045;-61
2022/04/04 05:14:15;;;;;;;17.42;7.85;;;;;;;;;;5051346;28;20049;-60
2022/04/04 05:16:41;;;;;;;15.25;6.10;;;;;;;;;;5067644;28;20465;-60
2022/04/04 05:19:08;;;;;;;20.58;7.10;;;;;;;;;;5051409;28;20151;-61
2022/04/04 05:21:34;;;;;;;13.43;5.25;;;;;;;;;;5050897;28;20483;-61
2022/04/04 05:24:00;;;;;;;10.10;4.93;;;;;;;;;;5068284;28;20045;-62
2022/04/04 05:26:26;;;;;;;12.05;5.35;;;;;;;;;;5051754;28;20114;-61
2022/04/04 05:28:54;;;;;;;11.88;5.32;;;;;;;;;;5051766;28;20060;-61
2022/04/04 05:31:20;;;;;;;12.68;5.28;;;;;;;;;;5052230;28;20515;-61
2022/04/04 05:33:46;;;;;;;12.02;4.60;;;;;;;;;;5050750;28;20057;-61
2022/04/04 05:36:12;;;;;;;12.60;5.38;;;;;;;;;;5049043;28;20164;-61
2022/04/04 05:38:39;;;;;;;9.10;3.80;;;;;;;;;;5051416;28;20044;-61
2022/04/04 05:41:05;;;;;;;9.23;4.07;;;;;;;;;;5064644;28;20049;-61
2022/04/04 05:43:31;;;;;;;9.48;3.20;;;;;;;;;;5049280;28;20186;-61
2022/04/04 05:45:57;;;;;;;13.93;3.13;;;;;;;;;;5051125;28;20494;-61
2022/04/04 05:48:27;;;;;;;13.18;3.47;;;;;;;;;;5049156;28;20053;-61
2022/04/04 05:50:54;;;;;;;8.80;3.42;;;;;;;;;;5049042;28;20060;-62
2022/04/04 05:53:20;;;;;;;5.40;2.67;;;;;;;;;;5046342;28;20047;-61
2022/04/04 05:55:46;;;;;;;9.95;2.70;;;;;;;;;;5050189;28;20072;-62
2022/04/04 05:58:12;;;;;;;13.13;3.20;;;;;;;;;;5050374;28;20068;-67
2022/04/04 06:00:38;;;;;;;11.80;3.75;;;;;;;;;;5034447;28;20033;-64
2022/04/04 06:03:06;;;;;;;7.72;3.03;;;;;;;;;;5049105;28;20048;-62
2022/04/04 06:05:34;;;;;;;9.13;3.60;;;;;;;;;;5050407;28;20392;-61
2022/04/04 06:08:01;;;;;;;12.60;4.72;;;;;;;;;;5049126;28;20503;-62
2022/04/04 06:10:27;;;;;;;14.57;5.22;;;;;;;;;;5064698;28;20061;-61
2022/04/04 06:12:53;;;;;;;14.82;4.53;;;;;;;;;;5052384;28;20451;-61
2022/04/04 06:15:20;;;;;;;13.07;5.40;;;;;;;;;;5045517;28;20104;-62
2022/04/04 06:17:46;;;;;;;13.30;4.68;;;;;;;;;;5031338;28;20048;-61
2022/04/04 06:20:13;;;;;;;12.77;5.78;;;;;;;;;;5048843;28;20040;-62
2022/04/04 06:22:40;;;;;;;13.70;5.93;;;;;;;;;;5050543;28;20049;-62
2022/04/04 06:25:08;;;;;;;9.88;5.38;;;;;;;;;;5047588;28;20063;-62
2022/04/04 06:27:34;;;;;;;12.98;6.95;;;;;;;;;;5050518;28;20110;-61
2022/04/04 06:30:01;;;;;;;19.75;7.53;;;;;;;;;;5049608;28;20056;-62
2022/04/04 06:32:27;;;;;;;21.42;7.88;;;;;;;;;;5034824;28;20048;-62
2022/04/04 06:34:53;;;;;;;17.88;7.90;;;;;;;;;;5049232;28;20061;-62
2022/04/04 06:37:19;;;;;;;23.73;8.55;;;;;;;;;;5031076;28;20041;-61
2022/04/04 06:39:45;;;;;;;20.17;9.15;;;;;;;;;;5067666;28;20117;-62
2022/04/04 06:42:12;;;;;;;25.25;11.15;;;;;;;;;;5038299;28;20079;-62
2022/04/04 06:44:38;;;;;;;25.48;10.57;;;;;;;;;;5049795;28;20553;-62
2022/04/04 06:47:04;;;;;;;20.85;10.65;;;;;;;;;;5051784;28;20060;-63
2022/04/04 06:49:31;;;;;;;24.88;11.05;;;;;;;;;;5068813;28;20057;-66
2022/04/04 06:51:57;;;;;;;20.10;11.48;;;;;;;;;;5063831;28;20036;-63
2022/04/04 06:54:23;;;;;;;23.95;11.63;;;;;;;;;;5038062;28;20213;-63
2022/04/04 06:56:50;;;;;;;27.75;11.82;;;;;;;;;;5050584;28;20468;-65
2022/04/04 06:59:16;;;;;;;22.63;12.07;;;;;;;;;;5029187;28;20045;-62
2022/04/04 07:01:43;;;;;;;25.63;12.18;;;;;;;;;;5065608;28;20095;-62
2022/04/04 07:04:10;;;;;;;26.63;12.60;;;;;;;;;;5049888;28;20041;-63
2022/04/04 07:06:36;;;;;;;29.15;12.02;;;;;;;;;;5048414;28;20575;-62
2022/04/04 07:09:03;;;;;;;34.70;14.80;;;;;;;;;;5049804;28;20543;-63
2022/04/04 07:11:29;;;;;;;26.77;12.15;;;;;;;;;;5046909;28;20045;-62
2022/04/04 07:13:56;;;;;;;21.00;12.70;;;;;;;;;;5048861;28;20413;-62
2022/04/04 07:16:22;;;;;;;33.25;13.77;;;;;;;;;;5045885;28;20039;-63
2022/04/04 07:18:49;;;;;;;31.30;13.55;;;;;;;;;;5032056;28;20172;-62
2022/04/04 07:21:16;;;;;;;36.08;15.57;;;;;;;;;;5033550;28;20044;-63
2022/04/04 07:23:42;;;;;;;33.05;13.07;;;;;;;;;;5067380;28;20060;-63
2022/04/04 07:26:09;;;;;;;26.45;13.52;;;;;;;;;;5050099;28;20124;-63
2022/04/04 07:28:35;;;;;;;33.22;15.27;;;;;;;;;;5037224;28;20448;-63
2022/04/04 07:31:06;;;;;;;29.10;14.13;;;;;;;;;;5027859;28;20506;-63
2022/04/04 07:33:32;;;;;;;24.88;13.10;;;;;;;;;;5029454;28;20877;-63
2022/04/04 07:35:58;;;;;;;25.80;12.98;;;;;;;;;;5017474;28;20048;-63
2022/04/04 07:38:25;;;;;;;24.08;12.52;;;;;;;;;;5042537;28;20046;-63
2022/04/04 07:40:51;;;;;;;24.23;11.27;;;;;;;;;;5037227;28;20121;-63
2022/04/04 07:43:17;;;;;;;22.42;11.95;;;;;;;;;;5044953;28;20056;-63
2022/04/04 07:45:44;;;;;;;22.00;11.15;;;;;;;;;;5065426;28;20072;-63
2022/04/04 07:48:11;;;;;;;20.58;11.02;;;;;;;;;;5032028;28;20059;-63
2022/04/04 07:50:37;;;;;;;21.30;11.02;;;;;;;;;;5046388;28;20049;-63
2022/04/04 07:53:04;;;;;;;20.98;11.40;;;;;;;;;;5034723;28;20059;-63
2022/04/04 07:55:30;;;;;;;27.80;12.13;;;;;;;;;;5034611;28;20112;-63
2022/04/04 07:57:56;;;;;;;23.40;11.20;;;;;;;;;;5071149;28;20084;-63
2022/04/04 08:00:24;;;;;;;19.83;10.45;;;;;;;;;;5050030;28;20104;-63
2022/04/04 08:02:51;;;;;;;25.80;11.90;;;;;;;;;;5047130;28;20053;-63
2022/04/04 08:05:17;;;;;;;25.40;11.48;;;;;;;;;;5052893;28;20116;-63
2022/04/04 08:07:47;;;;;;;20.73;10.90;;;;;;;;;;5052805;28;20045;-63
2022/04/04 08:10:14;;;;;;;19.45;11.20;;;;;;;;;;5051297;28;20079;-63
2022/04/04 08:12:40;;;;;;;27.13;12.02;;;;;;;;;;5049304;28;20045;-63
2022/04/04 08:15:06;;;;;;;23.33;11.18;;;;;;;;;;5049197;28;20052;-63
2022/04/04 08:17:33;;;;;;;20.42;10.07;;;;;;;;;;5053525;28;20398;-63
2022/04/04 08:19:59;;;;;;;20.67;9.60;;;;;;;;;;5051210;28;20394;-63
2022/04/04 08:22:25;;;;;;;22.10;9.80;;;;;;;;;;5053541;28;20377;-63
2022/04/04 08:24:51;;;;;;;20.85;9.15;;;;;;;;;;5051538;28;20037;-64
2022/04/04 08:27:18;;;;;;;18.48;9.20;;;;;;;;;;5039250;28;20138;-63
2022/04/04 08:29:44;;;;;;;16.00;8.25;;;;;;;;;;5050814;28;20087;-63
2022/04/04 08:32:10;;;;;;;16.67;9.25;;;;;;;;;;5050741;28;20053;-63
2022/04/04 08:34:36;;;;;;;18.55;8.50;;;;;;;;;;5062837;28;20045;-63
2022/04/04 08:37:03;;;;;;;16.70;7.50;;;;;;;;;;5028324;28;20061;-63
2022/04/04 08:39:29;;;;;;;21.23;8.40;;;;;;;;;;5031104;28;20469;-63
2022/04/04 08:41:55;;;;;;;15.50;6.82;;;;;;;;;;5029786;28;20405;-63
2022/04/04 08:44:22;;;;;;;15.88;7.93;;;;;;;;;;5030315;28;20041;-63
2022/04/04 08:46:48;;;;;;;13.43;6.78;;;;;;;;;;5031792;28;20460;-63
2022/04/04 08:49:15;;;;;;;17.42;7.18;;;;;;;;;;5031264;28;20053;-62
2022/04/04 08:51:42;;;;;;;13.50;6.20;;;;;;;;;;5029948;28;20137;-63
2022/04/04 08:54:08;;;;;;;15.43;7.13;;;;;;;;;;5030883;28;20052;-63
2022/04/04 08:56:34;;;;;;;16.30;6.60;;;;;;;;;;5032593;28;20042;-62
2022/04/04 08:59:01;;;;;;;11.40;6.40;;;;;;;;;;5029518;28;20045;-63
2022/04/04 09:01:28;;;;;;;11.77;5.70;;;;;;;;;;5031143;28;20508;-63
2022/04/04 09:04:01;;;;;;;13.43;6.72;;;;;;;;;;5030259;28;20045;-63
2022/04/04 09:06:28;;;;;;;9.82;4.85;;;;;;;;;;5026556;28;20259;-63
2022/04/04 09:08:56;;;;;;;13.35;5.45;;;;;;;;;;5029562;28;20508;-63
2022/04/04 09:11:22;;;;;;;21.13;6.68;;;;;;;;;;5032055;28;20484;-63
2022/04/04 09:14:06;;;;;;;19.73;5.70;;;;;;;;;;5030478;28;20033;-62
2022/04/04 09:16:32;;;;;;;13.60;5.45;;;;;;;;;;5028723;28;20049;-63
2022/04/04 09:18:58;;;;;;;14.85;5.38;;;;;;;;;;5029776;28;20033;-63
2022/04/04 09:21:25;;;;;;;12.50;5.50;;;;;;;;;;5032191;28;20053;-63
2022/04/04 09:23:54;;;;;;;14.35;4.53;;;;;;;;;;5030205;28;20053;-63
2022/04/04 09:26:30;;;;;;;13.32;5.57;;;;;;;;;;5031595;28;20096;-63
2022/04/04 09:28:57;;;;;;;12.38;4.75;;;;;;;;;;5030158;28;20045;-63
2022/04/04 09:31:24;;;;;;;13.23;5.15;;;;;;;;;;5063672;28;20056;-63
2022/04/04 09:33:51;;;;;;;19.38;5.07;;;;;;;;;;5028876;28;20097;-63
2022/04/04 09:36:17;;;;;;;23.58;6.25;;;;;;;;;;5036520;28;20122;-63
2022/04/04 09:38:44;;;;;;;12.90;5.70;;;;;;;;;;5033400;28;20157;-63
2022/04/04 09:41:14;;;;;;;13.55;4.90;;;;;;;;;;5026722;28;21430;-63
2022/04/04 09:43:57;;;;;;;14.13;5.20;;;;;;;;;;5046616;28;20676;-63
2022/04/04 09:46:23;;;;;;;16.60;4.90;;;;;;;;;;5033065;28;20136;-63
2022/04/04 09:49:01;;;;;;;15.05;5.22;;;;;;;;;;5047139;28;20175;-63
2022/04/04 09:51:35;;;;;;;18.25;5.00;;;;;;;;;;5044610;28;20041;-63
2022/04/04 09:54:03;;;;;;;13.02;4.70;;;;;;;;;;5039174;28;20396;-64
2022/04/04 09:56:29;;;;;;;12.55;4.45;;;;;;;;;;5034068;28;20033;-63
2022/04/04 09:58:57;;;;;;;10.82;3.90;;;;;;;;;;5050195;28;20036;-63
2022/04/04 10:01:23;;;;;;;19.02;5.32;;;;;;;;;;5050521;28;20460;-63
2022/04/04 10:03:51;;;;;;;14.70;4.28;;;;;;;;;;5045041;28;20045;-63
2022/04/04 10:06:19;;;;;;;12.10;3.88;;;;;;;;;;5041961;28;20353;-64
2022/04/04 10:08:46;;;;;;;13.60;4.03;;;;;;;;;;5047699;28;20044;-63
2022/04/04 10:11:13;;;;;;;14.52;4.45;;;;;;;;;;5050759;28;20369;-64
2022/04/04 10:13:39;;;;;;;16.52;4.43;;;;;;;;;;5049969;28;20041;-64
2022/04/04 10:16:05;;;;;;;15.07;3.90;;;;;;;;;;5049533;28;20404;-63
2022/04/04 10:18:32;;;;;;;9.07;3.72;;;;;;;;;;5065426;28;20048;-64
2022/04/04 10:20:59;;;;;;;11.30;3.30;;;;;;;;;;5050069;28;20033;-64
2022/04/04 10:23:26;;;;;;;13.23;3.80;;;;;;;;;;5050490;28;20097;-65
2022/04/04 10:25:53;;;;;;;9.40;3.30;;;;;;;;;;5052135;28;20561;-64
2022/04/04 10:28:27;;;;;;;10.20;3.20;;;;;;;;;;5054858;28;20078;-63
2022/04/04 10:30:57;;;;;;;8.50;2.72;;;;;;;;;;5050896;28;20119;-63
2022/04/04 10:33:24;;;;;;;11.90;3.08;;;;;;;;;;5049759;28;20083;-63
2022/04/04 10:36:00;;;;;;;10.90;3.05;;;;;;;;;;5050823;28;20143;-63
2022/04/04 10:38:30;;;;;;;12.57;3.08;;;;;;;;;;5030233;28;20124;-64
2022/04/04 10:40:57;;;;;;;9.48;2.35;;;;;;;;;;5031954;28;20048;-64
2022/04/04 10:43:23;;;;;;;7.72;2.92;;;;;;;;;;5032665;28;20044;-63
2022/04/04 10:45:51;;;;;;;11.55;4.45;;;;;;;;;;5067425;28;20538;-63
2022/04/04 10:48:18;;;;;;;10.57;2.67;;;;;;;;;;5049411;28;20033;-64
2022/04/04 10:50:45;;;;;;;9.18;2.55;;;;;;;;;;5046611;28;20033;-64
2022/04/04 10:53:11;;;;;;;8.88;2.88;;;;;;;;;;5052048;28;20388;-64
2022/04/04 10:55:37;;;;;;;12.73;2.53;;;;;;;;;;5051012;28;20045;-64
2022/04/04 10:58:07;;;;;;;8.88;3.22;;;;;;;;;;5032897;28;20064;-64
2022/04/04 11:00:35;;;;;;;7.10;2.75;;;;;;;;;;5045195;28;20131;-66
2022/04/04 11:03:02;;;;;;;10.18;3.28;;;;;;;;;;5068840;28;20053;-66
2022/04/04 11:08:32;;;;;;;7.75;2.45;;;;;;;;;;5048824;28;20128;-66
2022/04/04 11:10:59;;;;;;;7.30;3.08;;;;;;;;;;5048875;28;20073;-66
2022/04/04 11:13:25;;;;;;;7.50;3.13;;;;;;;;;;5048118;28;20045;-66
2022/04/04 11:15:59;;;;;;;5.85;2.95;;;;;;;;;;5065310;28;20037;-70
2022/04/04 11:18:46;;;;;;;8.68;2.85;;;;;;;;;;5048366;28;20052;-64
2022/04/04 11:21:32;;;;;;;6.72;3.38;;;;;;;;;;5045320;28;20492;-63
2022/04/04 11:24:00;;;;;;;7.78;3.15;;;;;;;;;;5047643;28;20091;-63
2022/04/04 11:26:26;;;;;;;11.63;3.72;;;;;;;;;;5064590;28;20128;-64
2022/04/04 11:28:55;;;;;;;6.72;2.80;;;;;;;;;;5048157;28;20079;-64
2022/04/04 11:31:22;;;;;;;8.45;3.33;;;;;;;;;;5050556;28;20049;-63
2022/04/04 11:33:51;;;;;;;8.48;4.10;;;;;;;;;;5047032;28;20045;-64
2022/04/04 11:36:25;;;;;;;8.73;4.00;;;;;;;;;;5065119;28;20076;-65
2022/04/04 11:38:51;;;;;;;9.52;4.03;;;;;;;;;;5045785;28;20045;-65
2022/04/04 11:41:22;;;;;;;13.00;4.72;;;;;;;;;;5048330;28;20045;-66
2022/04/04 11:43:50;;;;;;;10.00;4.97;;;;;;;;;;5048625;28;20045;-62
2022/04/04 11:46:19;;;;;;;12.45;6.15;;;;;;;;;;5048362;28;20434;-67
2022/04/04 11:48:51;;;;;;;12.02;6.13;;;;;;;;;;5059344;28;20077;-65
2022/04/04 11:51:19;;;;;;;14.60;6.95;;;;;;;;;;5062104;28;20078;-65
2022/04/04 11:53:45;;;;;;;15.88;6.80;;;;;;;;;;5028706;28;20065;-65
2022/04/04 11:56:20;;;;;;;14.55;7.28;;;;;;;;;;5048491;28;20133;-64
2022/04/04 11:58:48;;;;;;;19.27;8.38;;;;;;;;;;5034940;28;20057;-64
2022/04/04 12:01:14;;;;;;;17.10;8.23;;;;;;;;;;5026590;28;20053;-65
2022/04/04 12:03:43;;;;;;;17.60;8.27;;;;;;;;;;5047930;28;20468;-65
2022/04/04 12:06:10;;;;;;;18.77;9.25;;;;;;;;;;5046336;28;20053;-65
2022/04/04 12:08:37;;;;;;;18.67;9.45;;;;;;;;;;5046473;28;20041;-64
2022/04/04 12:11:05;;;;;;;22.77;8.80;;;;;;;;;;5064453;28;20041;-64
2022/04/04 12:13:31;;;;;;;17.20;7.88;;;;;;;;;;5047845;28;20112;-65
2022/04/04 12:15:57;;;;;;;17.80;8.35;;;;;;;;;;5045899;28;20408;-65
2022/04/04 12:18:25;;;;;;;18.70;8.63;;;;;;;;;;5043569;28;20342;-66
2022/04/04 12:20:52;;;;;;;20.17;9.43;;;;;;;;;;5047916;28;20038;-64
2022/04/04 12:26:07;;;;;;;19.35;8.95;;;;;;;;;;5041658;28;20453;-64
2022/04/04 12:28:34;;;;;;;22.65;8.52;;;;;;;;;;5050488;28;20135;-66
2022/04/04 12:31:18;;;;;;;19.42;8.25;;;;;;;;;;5030175;28;20051;-68
2022/04/04 12:33:45;;;;;;;19.35;8.23;;;;;;;;;;5044883;28;20151;-64
2022/04/04 12:36:12;;;;;;;15.38;7.20;;;;;;;;;;5060450;28;20554;-64
2022/04/04 12:38:39;;;;;;;15.38;8.05;;;;;;;;;;5047554;28;20460;-64
2022/04/04 12:41:07;;;;;;;18.98;8.57;;;;;;;;;;5047490;28;20041;-64
2022/04/04 12:43:33;;;;;;;20.88;8.50;;;;;;;;;;5062630;28;20059;-64
2022/04/04 12:45:59;;;;;;;17.92;8.50;;;;;;;;;;5049631;28;20289;-64
2022/04/04 12:48:44;;;;;;;17.45;7.57;;;;;;;;;;5047263;28;20064;-64
2022/04/04 12:51:24;;;;;;;17.50;7.60;;;;;;;;;;5049463;28;20041;-63
2022/04/04 12:53:53;;;;;;;21.92;8.40;;;;;;;;;;5049306;28;20044;-64
2022/04/04 12:56:20;;;;;;;16.50;7.75;;;;;;;;;;5049973;28;20060;-64
2022/04/04 12:59:06;;;;;;;16.90;8.32;;;;;;;;;;5049834;28;20091;-64
2022/04/04 13:01:32;;;;;;;21.98;7.68;;;;;;;;;;5051631;28;20061;-64
2022/04/04 13:03:59;;;;;;;16.45;7.40;;;;;;;;;;5033808;28;20032;-66
2022/04/04 13:06:29;;;;;;;24.40;8.98;;;;;;;;;;5056370;28;20108;-64
2022/04/04 13:08:55;;;;;;;27.55;9.95;;;;;;;;;;5057295;28;20113;-64
2022/04/04 13:11:22;;;;;;;25.88;9.27;;;;;;;;;;5059038;28;20430;-65
2022/04/04 13:14:05;;;;;;;29.85;9.02;;;;;;;;;;5068344;28;20417;-64
2022/04/04 13:16:32;;;;;;;23.50;9.90;;;;;;;;;;5055677;28;20044;-64
2022/04/04 13:18:59;;;;;;;22.85;8.55;;;;;;;;;;5069058;28;20560;-64
2022/04/04 13:21:25;;;;;;;29.73;10.70;;;;;;;;;;5054244;28;20473;-65
2022/04/04 13:23:52;;;;;;;24.23;10.18;;;;;;;;;;5054864;28;20119;-64
2022/04/04 13:26:18;;;;;;;27.63;10.40;;;;;;;;;;5037532;28;20102;-64
2022/04/04 13:28:44;;;;;;;33.50;12.07;;;;;;;;;;5061572;28;20480;-64
2022/04/04 13:31:10;;;;;;;29.75;11.10;;;;;;;;;;5035418;28;20045;-63
2022/04/04 13:33:36;;;;;;;29.30;11.00;;;;;;;;;;5030125;28;20045;-63
2022/04/04 13:36:04;;;;;;;31.70;12.00;;;;;;;;;;5051730;28;20061;-64
2022/04/04 13:38:31;;;;;;;35.53;11.18;;;;;;;;;;5069764;28;20053;-63
2022/04/04 13:40:57;;;;;;;31.98;10.43;;;;;;;;;;5038228;28;20037;-63
2022/04/04 13:43:26;;;;;;;39.05;11.80;;;;;;;;;;5051276;28;20090;-63
2022/04/04 13:45:53;;;;;;;34.45;9.68;;;;;;;;;;5051394;28;20059;-64
2022/04/04 13:48:19;;;;;;;35.70;10.20;;;;;;;;;;5050527;28;20029;-63
2022/04/04 13:50:45;;;;;;;31.88;9.43;;;;;;;;;;5036742;28;20045;-64
2022/04/04 13:53:12;;;;;;;34.60;8.80;;;;;;;;;;5019110;28;20998;-63
2022/04/04 13:55:38;;;;;;;32.83;8.98;;;;;;;;;;5058145;28;20090;-63
2022/04/04 13:58:05;;;;;;;27.60;9.30;;;;;;;;;;5051752;28;20043;-63
2022/04/04 14:00:31;;;;;;;29.08;7.82;;;;;;;;;;5053046;28;20040;-64
2022/04/04 14:02:57;;;;;;;36.63;8.98;;;;;;;;;;5051114;28;20042;-64
2022/04/04 14:05:23;;;;;;;35.70;9.13;;;;;;;;;;5048285;28;20052;-63
2022/04/04 14:07:50;;;;;;;34.83;9.07;;;;;;;;;;5042718;28;20308;-64
2022/04/04 14:10:17;;;;;;;39.55;9.40;;;;;;;;;;5046355;28;20057;-64
2022/04/04 14:12:43;;;;;;;45.72;9.95;;;;;;;;;;5043925;28;20045;-64
2022/04/04 14:15:10;;;;;;;40.85;8.93;;;;;;;;;;5043064;28;20353;-63
2022/04/04 14:17:37;;;;;;;49.85;11.05;;;;;;;;;;5043402;28;20036;-64
2022/04/04 14:20:04;;;;;;;40.13;9.50;;;;;;;;;;5044614;28;20086;-63
2022/04/04 14:22:31;;;;;;;46.88;9.38;;;;;;;;;;5044314;28;20053;-72
2022/04/04 14:24:57;;;;;;;44.55;9.55;;;;;;;;;;5045373;28;20043;-64
2022/04/04 14:27:25;;;;;;;38.70;9.88;;;;;;;;;;5044982;28;20128;-64
2022/04/04 14:29:51;;;;;;;43.88;9.35;;;;;;;;;;5044141;28;20048;-64
2022/04/04 14:32:18;;;;;;;40.42;8.52;;;;;;;;;;5050788;28;20037;-63